Shonai current weather conditions

sailwx.info

Wind at 1 knots

Air temperature 1.0° C
Visibility: greater than 5.4 NM
Dewpoint -4.0° C

Last reported at 2020-Jan-25 12:00 UTC.
Time now 2020-Jan-25 15:00 UTC

Location: N 38°49' E 139°47'.
View on Google Maps.

See reports from other nearby stations

  
Tides and Currents Weather Stations Pressure Air Temp Water Temp Dewpoint Dewpoint Depression Visibility Wind Speed Wind Dir Waves Ship Positions
date/time (UTC)wind fromknots sea level pressurealtimeterstation pressurevisibilityair tempwater tempwave heightnotes
2020-Jan-25 12:00 5.4 1.0
2020-Jan-25 11:00 300 4 5.4 1.0
2020-Jan-25 10:00 300 5 5.4 3.0
2020-Jan-25 09:00 300 6 5.4 3.0
2020-Jan-25 08:00 290 6 5.4 3.0
2020-Jan-25 07:00 310 6 5.4 3.0
2020-Jan-25 06:00 300 6 5.4 3.0
2020-Jan-25 05:00 310 6 5.4 3.0 Light snow showers.
2020-Jan-25 04:00 290 7 5.4 4.0
2020-Jan-25 03:00 320 8 5.4 4.0
2020-Jan-25 02:00 320 7 5.4 3.0 Showers in the vicinity.
2020-Jan-25 01:00 300 8 5.4 3.0 Light snow showers.
2020-Jan-25 00:00 320 6 5.4 3.0 Light snow showers.
2020-Jan-24 23:00 290 8 5.4 3.0 Light snow showers.
2020-Jan-24 22:00 300 8 5.4 3.0 Showers in the vicinity.
2020-Jan-24 12:00 290 12 5.4 3.0
2020-Jan-24 11:00 290 9 5.4 3.0 Light snow showers.
2020-Jan-24 10:00 310 11 5.4 3.0
2020-Jan-24 09:00 320 8 5.4 3.0
2020-Jan-24 08:00 340 8 gusting 20 5.4 3.0
2020-Jan-24 07:00 330 13 gusting 24 5.4 4.0 Light rain showers.
2020-Jan-24 06:00 330 13 gusting 25 5.4 4.0 Light rain showers.
2020-Jan-24 05:00 330 11 gusting 24 4.3 5.0 Light rain showers.
2020-Jan-24 04:00 320 14 gusting 25 5.4 6.0 Light rain showers.
2020-Jan-24 03:00 290 12 5.4 8.0
2020-Jan-24 02:00 280 12 5.4 8.0 Light rain showers.
2020-Jan-24 01:00 290 8 5.4 7.0 Light rain showers.
2020-Jan-24 00:00 5.4 4.0 Light rain showers.
2020-Jan-23 23:00 100 4 5.4 4.0
2020-Jan-23 22:00 090 2 5.4 3.0 Shallow fog.